sensor_id;sensor_type;location;lat;lon;timestamp;pressure;altitude;pressure_sealevel;temperature;humidity
46722;BME280;32455;43.430;23.136;2023-06-26T00:02:42;97876.97;;;18.79;100.00
46722;BME280;32455;43.430;23.136;2023-06-26T00:05:28;97867.91;;;18.88;100.00
46722;BME280;32455;43.430;23.136;2023-06-26T00:08:15;97865.69;;;18.95;100.00
46722;BME280;32455;43.430;23.136;2023-06-26T00:11:00;97868.16;;;18.92;100.00
46722;BME280;32455;43.430;23.136;2023-06-26T00:13:45;97881.31;;;19.19;100.00
46722;BME280;32455;43.430;23.136;2023-06-26T00:16:31;97869.00;;;19.21;100.00
46722;BME280;32455;43.430;23.136;2023-06-26T00:19:16;97879.84;;;19.26;100.00
46722;BME280;32455;43.430;23.136;2023-06-26T00:22:02;97873.41;;;19.17;100.00
46722;BME280;32455;43.430;23.136;2023-06-26T00:24:48;97880.50;;;19.13;100.00
46722;BME280;32455;43.430;23.136;2023-06-26T00:27:33;97882.72;;;19.11;100.00
46722;BME280;32455;43.430;23.136;2023-06-26T00:30:18;97868.66;;;18.99;100.00
46722;BME280;32455;43.430;23.136;2023-06-26T00:33:04;97865.44;;;18.92;100.00
46722;BME280;32455;43.430;23.136;2023-06-26T00:35:49;97867.91;;;18.93;100.00
46722;BME280;32455;43.430;23.136;2023-06-26T00:38:35;97871.69;;;18.92;100.00
46722;BME280;32455;43.430;23.136;2023-06-26T00:41:20;97871.72;;;18.87;100.00
46722;BME280;32455;43.430;23.136;2023-06-26T00:44:06;97876.06;;;18.88;100.00
46722;BME280;32455;43.430;23.136;2023-06-26T00:46:52;97880.97;;;18.91;100.00
46722;BME280;32455;43.430;23.136;2023-06-26T00:49:37;97870.63;;;18.88;100.00
46722;BME280;32455;43.430;23.136;2023-06-26T00:52:23;97861.13;;;18.86;100.00
46722;BME280;32455;43.430;23.136;2023-06-26T00:55:09;97864.72;;;18.81;100.00
46722;BME280;32455;43.430;23.136;2023-06-26T00:57:55;97864.66;;;18.86;100.00
46722;BME280;32455;43.430;23.136;2023-06-26T01:00:40;97861.84;;;18.96;100.00
46722;BME280;32455;43.430;23.136;2023-06-26T01:03:26;97867.03;;;18.98;100.00
46722;BME280;32455;43.430;23.136;2023-06-26T01:06:13;97858.06;;;18.92;100.00
46722;BME280;32455;43.430;23.136;2023-06-26T01:09:01;97859.03;;;19.12;100.00
46722;BME280;32455;43.430;23.136;2023-06-26T01:11:47;97863.09;;;19.14;100.00
46722;BME280;32455;43.430;23.136;2023-06-26T01:14:33;97866.34;;;19.16;100.00
46722;BME280;32455;43.430;23.136;2023-06-26T01:17:20;97853.88;;;19.05;100.00
46722;BME280;32455;43.430;23.136;2023-06-26T01:20:06;97851.50;;;18.98;100.00
46722;BME280;32455;43.430;23.136;2023-06-26T01:28:44;97848.03;;;18.88;100.00
46722;BME280;32455;43.430;23.136;2023-06-26T01:31:30;97847.47;;;18.91;100.00
46722;BME280;32455;43.430;23.136;2023-06-26T01:34:17;97845.13;;;18.79;100.00
46722;BME280;32455;43.430;23.136;2023-06-26T01:37:03;97841.53;;;18.89;100.00
46722;BME280;32455;43.430;23.136;2023-06-26T01:39:48;97837.13;;;18.93;100.00
46722;BME280;32455;43.430;23.136;2023-06-26T01:42:34;97846.31;;;18.97;100.00
46722;BME280;32455;43.430;23.136;2023-06-26T01:45:24;97843.94;;;18.90;100.00
46722;BME280;32455;43.430;23.136;2023-06-26T01:48:12;97846.56;;;19.00;100.00
46722;BME280;32455;43.430;23.136;2023-06-26T01:50:59;97852.06;;;18.95;100.00
46722;BME280;32455;43.430;23.136;2023-06-26T01:53:46;97843.66;;;18.92;100.00
46722;BME280;32455;43.430;23.136;2023-06-26T01:56:37;97845.56;;;18.91;100.00
46722;BME280;32455;43.430;23.136;2023-06-26T01:59:25;97840.94;;;18.92;100.00
46722;BME280;32455;43.430;23.136;2023-06-26T02:02:12;97839.13;;;18.82;100.00
46722;BME280;32455;43.430;23.136;2023-06-26T02:04:57;97835.28;;;18.83;100.00
46722;BME280;32455;43.430;23.136;2023-06-26T02:07:42;97841.28;;;18.85;100.00
46722;BME280;32455;43.430;23.136;2023-06-26T02:10:28;97843.94;;;18.90;100.00
46722;BME280;32455;43.430;23.136;2023-06-26T02:13:14;97840.69;;;18.88;100.00
46722;BME280;32455;43.430;23.136;2023-06-26T02:15:59;97851.81;;;18.92;100.00
46722;BME280;32455;43.430;23.136;2023-06-26T02:18:44;97839.72;;;18.74;100.00
46722;BME280;32455;43.430;23.136;2023-06-26T02:21:30;97838.59;;;18.80;100.00
46722;BME280;32455;43.430;23.136;2023-06-26T02:24:15;97833.38;;;18.84;100.00
46722;BME280;32455;43.430;23.136;2023-06-26T02:27:00;97834.22;;;18.79;100.00
46722;BME280;32455;43.430;23.136;2023-06-26T02:29:46;97842.59;;;18.88;100.00
46722;BME280;32455;43.430;23.136;2023-06-26T02:32:31;97831.44;;;18.89;100.00
46722;BME280;32455;43.430;23.136;2023-06-26T02:35:16;97834.63;;;18.96;100.00
46722;BME280;32455;43.430;23.136;2023-06-26T02:38:02;97824.53;;;19.02;100.00
46722;BME280;32455;43.430;23.136;2023-06-26T02:40:47;97833.88;;;19.20;100.00
46722;BME280;32455;43.430;23.136;2023-06-26T02:43:32;97833.84;;;19.25;100.00
46722;BME280;32455;43.430;23.136;2023-06-26T02:46:19;97833.84;;;19.25;100.00
46722;BME280;32455;43.430;23.136;2023-06-26T02:49:04;97831.06;;;19.30;100.00
46722;BME280;32455;43.430;23.136;2023-06-26T02:51:50;97842.75;;;19.31;100.00
46722;BME280;32455;43.430;23.136;2023-06-26T02:54:35;97838.13;;;19.31;100.00
46722;BME280;32455;43.430;23.136;2023-06-26T02:57:21;97844.00;;;19.43;100.00
46722;BME280;32455;43.430;23.136;2023-06-26T03:00:07;97840.59;;;19.57;100.00
46722;BME280;32455;43.430;23.136;2023-06-26T03:02:53;97840.59;;;19.57;100.00
46722;BME280;32455;43.430;23.136;2023-06-26T03:05:38;97846.25;;;19.65;100.00
46722;BME280;32455;43.430;23.136;2023-06-26T03:08:24;97837.22;;;19.70;100.00
46722;BME280;32455;43.430;23.136;2023-06-26T03:11:09;97849.31;;;19.83;100.00
46722;BME280;32455;43.430;23.136;2023-06-26T03:13:54;97845.84;;;19.77;100.00
46722;BME280;32455;43.430;23.136;2023-06-26T03:16:40;97858.22;;;19.93;100.00
46722;BME280;32455;43.430;23.136;2023-06-26T03:19:25;97850.19;;;20.02;100.00
46722;BME280;32455;43.430;23.136;2023-06-26T03:22:10;97841.78;;;19.98;100.00
46722;BME280;32455;43.430;23.136;2023-06-26T03:24:55;97845.56;;;20.02;100.00
46722;BME280;32455;43.430;23.136;2023-06-26T03:27:40;97851.06;;;19.97;100.00
46722;BME280;32455;43.430;23.136;2023-06-26T03:30:26;97852.34;;;20.05;100.00
46722;BME280;32455;43.430;23.136;2023-06-26T03:33:11;97849.78;;;20.14;100.00
46722;BME280;32455;43.430;23.136;2023-06-26T03:35:57;97854.19;;;20.10;100.00
46722;BME280;32455;43.430;23.136;2023-06-26T03:38:42;97853.03;;;20.16;100.00
46722;BME280;32455;43.430;23.136;2023-06-26T03:41:27;97847.56;;;20.16;100.00
46722;BME280;32455;43.430;23.136;2023-06-26T03:44:13;97850.75;;;20.23;100.00
46722;BME280;32455;43.430;23.136;2023-06-26T03:46:58;97848.19;;;20.32;100.00
46722;BME280;32455;43.430;23.136;2023-06-26T03:49:43;97858.13;;;20.22;100.00
46722;BME280;32455;43.430;23.136;2023-06-26T03:52:28;97854.75;;;20.31;100.00
46722;BME280;32455;43.430;23.136;2023-06-26T03:55:17;97864.00;;;20.30;100.00
46722;BME280;32455;43.430;23.136;2023-06-26T03:58:03;97862.16;;;20.25;100.00
46722;BME280;32455;43.430;23.136;2023-06-26T04:00:48;97858.50;;;20.35;100.00
46722;BME280;32455;43.430;23.136;2023-06-26T04:03:34;97865.00;;;20.39;100.00
46722;BME280;32455;43.430;23.136;2023-06-26T04:06:19;97857.31;;;20.22;100.00
46722;BME280;32455;43.430;23.136;2023-06-26T04:09:05;97859.31;;;20.35;100.00
46722;BME280;32455;43.430;23.136;2023-06-26T04:11:50;97866.41;;;20.36;100.00
46722;BME280;32455;43.430;23.136;2023-06-26T04:14:36;97875.31;;;20.42;100.00
46722;BME280;32455;43.430;23.136;2023-06-26T04:17:21;97868.78;;;20.43;100.00
46722;BME280;32455;43.430;23.136;2023-06-26T04:20:07;97876.53;;;20.55;100.00
46722;BME280;32455;43.430;23.136;2023-06-26T04:22:54;97877.78;;;20.43;100.00
46722;BME280;32455;43.430;23.136;2023-06-26T04:25:39;97873.25;;;20.34;100.00
46722;BME280;32455;43.430;23.136;2023-06-26T04:28:25;97882.19;;;20.39;100.00
46722;BME280;32455;43.430;23.136;2023-06-26T04:31:11;97869.94;;;20.37;100.00
46722;BME280;32455;43.430;23.136;2023-06-26T04:33:56;97874.28;;;20.38;100.00
46722;BME280;32455;43.430;23.136;2023-06-26T04:36:43;97887.53;;;20.49;100.00
46722;BME280;32455;43.430;23.136;2023-06-26T04:39:32;97876.25;;;20.56;100.00
46722;BME280;32455;43.430;23.136;2023-06-26T04:42:17;97885.75;;;20.59;100.00
46722;BME280;32455;43.430;23.136;2023-06-26T04:45:04;97874.00;;;20.39;100.00
46722;BME280;32455;43.430;23.136;2023-06-26T04:47:50;97876.53;;;20.55;100.00
46722;BME280;32455;43.430;23.136;2023-06-26T04:50:35;97873.22;;;20.58;100.00
46722;BME280;32455;43.430;23.136;2023-06-26T04:53:22;97875.88;;;20.63;100.00
46722;BME280;32455;43.430;23.136;2023-06-26T04:56:07;97879.81;;;20.57;100.00
46722;BME280;32455;43.430;23.136;2023-06-26T04:58:54;97888.41;;;20.64;100.00
46722;BME280;32455;43.430;23.136;2023-06-26T05:01:40;97879.78;;;20.75;100.00
46722;BME280;32455;43.430;23.136;2023-06-26T05:04:25;97887.19;;;20.75;100.00
46722;BME280;32455;43.430;23.136;2023-06-26T05:07:10;97893.22;;;20.91;100.00
46722;BME280;32455;43.430;23.136;2023-06-26T05:09:54;97883.47;;;20.85;100.00
46722;BME280;32455;43.430;23.136;2023-06-26T05:12:40;97884.28;;;20.85;100.00
46722;BME280;32455;43.430;23.136;2023-06-26T05:15:25;97880.38;;;20.72;100.00
46722;BME280;32455;43.430;23.136;2023-06-26T05:18:11;97897.72;;;21.00;100.00
46722;BME280;32455;43.430;23.136;2023-06-26T05:20:57;97897.25;;;21.12;100.00
46722;BME280;32455;43.430;23.136;2023-06-26T05:23:42;97899.63;;;21.00;100.00
46722;BME280;32455;43.430;23.136;2023-06-26T05:26:29;97895.44;;;21.08;100.00
46722;BME280;32455;43.430;23.136;2023-06-26T05:29:15;97901.03;;;21.16;100.00
46722;BME280;32455;43.430;23.136;2023-06-26T05:32:00;97897.41;;;21.02;100.00
46722;BME280;32455;43.430;23.136;2023-06-26T05:34:49;97891.72;;;21.17;100.00
46722;BME280;32455;43.430;23.136;2023-06-26T05:37:37;97896.59;;;21.20;100.00
46722;BME280;32455;43.430;23.136;2023-06-26T05:40:24;97909.03;;;21.26;100.00
46722;BME280;32455;43.430;23.136;2023-06-26T05:43:09;97896.41;;;21.31;100.00
46722;BME280;32455;43.430;23.136;2023-06-26T05:45:56;97899.28;;;21.39;100.00
46722;BME280;32455;43.430;23.136;2023-06-26T05:48:42;97901.00;;;21.35;100.00
46722;BME280;32455;43.430;23.136;2023-06-26T05:51:28;97894.22;;;21.33;100.00
46722;BME280;32455;43.430;23.136;2023-06-26T05:54:13;97905.72;;;21.30;100.00
46722;BME280;32455;43.430;23.136;2023-06-26T05:56:59;97903.53;;;21.45;100.00
46722;BME280;32455;43.430;23.136;2023-06-26T05:59:44;97905.06;;;21.38;100.00
46722;BME280;32455;43.430;23.136;2023-06-26T06:02:30;97908.44;;;21.48;100.00
46722;BME280;32455;43.430;23.136;2023-06-26T06:05:16;97900.66;;;21.56;100.00
46722;BME280;32455;43.430;23.136;2023-06-26T06:08:01;97899.31;;;21.53;100.00
46722;BME280;32455;43.430;23.136;2023-06-26T06:10:46;97911.00;;;21.59;100.00
46722;BME280;32455;43.430;23.136;2023-06-26T06:13:31;97900.66;;;21.56;100.00
46722;BME280;32455;43.430;23.136;2023-06-26T06:16:16;97909.56;;;21.61;100.00
46722;BME280;32455;43.430;23.136;2023-06-26T06:19:02;97905.94;;;21.80;100.00
46722;BME280;32455;43.430;23.136;2023-06-26T06:21:48;97909.59;;;21.75;100.00
46722;BME280;32455;43.430;23.136;2023-06-26T06:24:33;97912.63;;;21.87;100.00
46722;BME280;32455;43.430;23.136;2023-06-26T06:27:18;97915.16;;;21.84;100.00
46722;BME280;32455;43.430;23.136;2023-06-26T06:30:04;97916.38;;;21.78;100.00
46722;BME280;32455;43.430;23.136;2023-06-26T06:32:50;97907.59;;;21.81;100.00
46722;BME280;32455;43.430;23.136;2023-06-26T06:35:37;97900.97;;;21.68;100.00
46722;BME280;32455;43.430;23.136;2023-06-26T06:38:23;97906.34;;;21.73;100.00
46722;BME280;32455;43.430;23.136;2023-06-26T06:41:08;97906.94;;;21.56;100.00
46722;BME280;32455;43.430;23.136;2023-06-26T06:43:53;97909.31;;;21.77;100.00
46722;BME280;32455;43.430;23.136;2023-06-26T06:46:39;97900.88;;;21.73;100.00
46722;BME280;32455;43.430;23.136;2023-06-26T06:49:24;97904.03;;;21.80;100.00
46722;BME280;32455;43.430;23.136;2023-06-26T06:52:09;97905.88;;;21.98;100.00
46722;BME280;32455;43.430;23.136;2023-06-26T06:54:56;97900.44;;;22.12;100.00
46722;BME280;32455;43.430;23.136;2023-06-26T06:57:43;97906.28;;;22.33;100.00
46722;BME280;32455;43.430;23.136;2023-06-26T07:00:27;97896.44;;;22.46;100.00
46722;BME280;32455;43.430;23.136;2023-06-26T07:03:13;97905.88;;;22.54;100.00
46722;BME280;32455;43.430;23.136;2023-06-26T07:05:58;97909.50;;;22.63;100.00
46722;BME280;32455;43.430;23.136;2023-06-26T07:08:43;97905.63;;;22.64;100.00
46722;BME280;32455;43.430;23.136;2023-06-26T07:11:28;97898.19;;;22.78;100.00
46722;BME280;32455;43.430;23.136;2023-06-26T07:14:14;97897.56;;;22.81;100.00
46722;BME280;32455;43.430;23.136;2023-06-26T07:16:59;97891.72;;;22.74;100.00
46722;BME280;32455;43.430;23.136;2023-06-26T07:19:44;97901.47;;;22.66;100.00
46722;BME280;32455;43.430;23.136;2023-06-26T07:22:30;97912.94;;;22.68;100.00
46722;BME280;32455;43.430;23.136;2023-06-26T07:25:15;97903.13;;;22.54;100.00
46722;BME280;32455;43.430;23.136;2023-06-26T07:28:00;97903.56;;;22.83;100.00
46722;BME280;32455;43.430;23.136;2023-06-26T07:30:46;97896.31;;;23.01;100.00
46722;BME280;32455;43.430;23.136;2023-06-26T07:33:31;97898.88;;;22.97;100.00
46722;BME280;32455;43.430;23.136;2023-06-26T07:36:16;97913.84;;;22.64;100.00
46722;BME280;32455;43.430;23.136;2023-06-26T07:39:02;97911.03;;;22.55;100.00
46722;BME280;32455;43.430;23.136;2023-06-26T07:41:47;97914.72;;;23.01;100.00
46722;BME280;32455;43.430;23.136;2023-06-26T07:44:33;97913.25;;;23.03;100.00
46722;BME280;32455;43.430;23.136;2023-06-26T07:47:18;97906.78;;;22.85;100.00
46722;BME280;32455;43.430;23.136;2023-06-26T07:50:04;97914.19;;;22.98;100.00
46722;BME280;32455;43.430;23.136;2023-06-26T07:52:49;97913.59;;;23.02;100.00
46722;BME280;32455;43.430;23.136;2023-06-26T07:55:35;97906.69;;;23.04;100.00
46722;BME280;32455;43.430;23.136;2023-06-26T07:58:21;97921.00;;;22.87;100.00
46722;BME280;32455;43.430;23.136;2023-06-26T08:01:06;97929.41;;;22.55;100.00
46722;BME280;32455;43.430;23.136;2023-06-26T08:03:51;97931.97;;;22.73;100.00
46722;BME280;32455;43.430;23.136;2023-06-26T08:06:37;97913.41;;;22.84;100.00
46722;BME280;32455;43.430;23.136;2023-06-26T08:09:27;97928.66;;;22.63;100.00
46722;BME280;32455;43.430;23.136;2023-06-26T08:12:13;97930.41;;;22.59;100.00
46722;BME280;32455;43.430;23.136;2023-06-26T08:14:58;97931.22;;;22.59;100.00
46722;BME280;32455;43.430;23.136;2023-06-26T08:17:44;97931.72;;;22.61;100.00
46722;BME280;32455;43.430;23.136;2023-06-26T08:20:30;97930.75;;;22.93;100.00
46722;BME280;32455;43.430;23.136;2023-06-26T08:23:16;97920.41;;;22.90;100.00
46722;BME280;32455;43.430;23.136;2023-06-26T08:26:01;97928.41;;;22.87;100.00
46722;BME280;32455;43.430;23.136;2023-06-26T08:28:46;97920.94;;;22.79;100.00
46722;BME280;32455;43.430;23.136;2023-06-26T08:31:31;97931.97;;;23.01;100.00
46722;BME280;32455;43.430;23.136;2023-06-26T08:34:19;97922.41;;;23.21;100.00
46722;BME280;32455;43.430;23.136;2023-06-26T08:37:04;97927.97;;;23.52;100.00
46722;BME280;32455;43.430;23.136;2023-06-26T08:39:49;97935.72;;;23.72;100.00
46722;BME280;32455;43.430;23.136;2023-06-26T08:42:34;97935.94;;;23.85;100.00
46722;BME280;32455;43.430;23.136;2023-06-26T08:45:20;97938.56;;;23.90;100.00
46722;BME280;32455;43.430;23.136;2023-06-26T08:48:08;97928.78;;;24.15;100.00
46722;BME280;32455;43.430;23.136;2023-06-26T08:50:54;97936.22;;;24.14;100.00
46722;BME280;32455;43.430;23.136;2023-06-26T08:54:00;97943.16;;;24.12;100.00
46722;BME280;32455;43.430;23.136;2023-06-26T08:56:48;97938.16;;;24.14;100.00
46722;BME280;32455;43.430;23.136;2023-06-26T08:59:34;97926.81;;;24.38;100.00
46722;BME280;32455;43.430;23.136;2023-06-26T09:02:20;97924.06;;;24.38;100.00
46722;BME280;32455;43.430;23.136;2023-06-26T09:05:08;97932.72;;;24.31;100.00
46722;BME280;32455;43.430;23.136;2023-06-26T09:07:54;97933.41;;;23.97;100.00
46722;BME280;32455;43.430;23.136;2023-06-26T09:10:42;97936.00;;;24.02;100.00
46722;BME280;32455;43.430;23.136;2023-06-26T09:13:30;97935.41;;;24.14;100.00
46722;BME280;32455;43.430;23.136;2023-06-26T09:16:15;97938.41;;;24.35;100.00
46722;BME280;32455;43.430;23.136;2023-06-26T09:19:02;97930.59;;;24.68;98.70
46722;BME280;32455;43.430;23.136;2023-06-26T09:21:49;97927.88;;;24.77;95.58
46722;BME280;32455;43.430;23.136;2023-06-26T09:24:36;97919.34;;;25.13;100.00
46722;BME280;32455;43.430;23.136;2023-06-26T09:27:22;97928.22;;;25.01;100.00
46722;BME280;32455;43.430;23.136;2023-06-26T09:30:08;97934.00;;;24.25;99.71
46722;BME280;32455;43.430;23.136;2023-06-26T09:32:53;97921.72;;;24.22;100.00
46722;BME280;32455;43.430;23.136;2023-06-26T09:35:39;97917.53;;;24.25;100.00
46722;BME280;32455;43.430;23.136;2023-06-26T09:38:24;97909.59;;;24.63;100.00
46722;BME280;32455;43.430;23.136;2023-06-26T09:41:09;97920.44;;;24.86;93.92
46722;BME280;32455;43.430;23.136;2023-06-26T09:43:58;97929.31;;;25.00;92.98
46722;BME280;32455;43.430;23.136;2023-06-26T09:46:45;97918.84;;;24.93;91.85
46722;BME280;32455;43.430;23.136;2023-06-26T09:49:32;97925.91;;;24.68;92.57
46722;BME280;32455;43.430;23.136;2023-06-26T09:52:18;97926.75;;;25.04;91.33
46722;BME280;32455;43.430;23.136;2023-06-26T09:55:12;97916.91;;;25.11;92.88
46722;BME280;32455;43.430;23.136;2023-06-26T09:57:59;97918.53;;;25.21;94.15
46722;BME280;32455;43.430;23.136;2023-06-26T10:00:45;97904.94;;;25.16;92.33
46722;BME280;32455;43.430;23.136;2023-06-26T10:03:30;97909.00;;;25.27;94.53
46722;BME280;32455;43.430;23.136;2023-06-26T10:06:19;97906.56;;;25.08;93.28
46722;BME280;32455;43.430;23.136;2023-06-26T10:09:08;97901.19;;;25.46;99.12
46722;BME280;32455;43.430;23.136;2023-06-26T10:12:06;97896.63;;;25.51;89.89
46722;BME280;32455;43.430;23.136;2023-06-26T10:14:57;97916.25;;;25.49;91.34
46722;BME280;32455;43.430;23.136;2023-06-26T10:17:43;97901.81;;;25.52;89.00
46722;BME280;32455;43.430;23.136;2023-06-26T10:20:32;97897.81;;;25.41;96.82
46722;BME280;32455;43.430;23.136;2023-06-26T10:23:19;97914.47;;;24.92;94.13
46722;BME280;32455;43.430;23.136;2023-06-26T10:26:06;97906.34;;;25.39;93.43
46722;BME280;32455;43.430;23.136;2023-06-26T10:28:53;97901.03;;;24.91;93.13
46722;BME280;32455;43.430;23.136;2023-06-26T10:31:43;97908.03;;;25.14;93.27
46722;BME280;32455;43.430;23.136;2023-06-26T10:34:30;97898.91;;;25.57;93.06
46722;BME280;32455;43.430;23.136;2023-06-26T10:37:16;97901.59;;;25.75;87.57
46722;BME280;32455;43.430;23.136;2023-06-26T10:40:01;97906.16;;;25.79;82.24
46722;BME280;32455;43.430;23.136;2023-06-26T10:42:47;97896.91;;;25.75;87.85
46722;BME280;32455;43.430;23.136;2023-06-26T10:45:33;97888.09;;;25.99;87.22
46722;BME280;32455;43.430;23.136;2023-06-26T10:48:19;97897.25;;;26.12;84.26
46722;BME280;32455;43.430;23.136;2023-06-26T10:51:24;97896.88;;;25.92;83.23
46722;BME280;32455;43.430;23.136;2023-06-26T10:54:14;97887.16;;;25.86;84.39
46722;BME280;32455;43.430;23.136;2023-06-26T10:57:01;97887.84;;;26.21;86.99
46722;BME280;32455;43.430;23.136;2023-06-26T10:59:46;97887.19;;;26.16;81.72
46722;BME280;32455;43.430;23.136;2023-06-26T11:02:48;97889.25;;;26.28;80.50
46722;BME280;32455;43.430;23.136;2023-06-26T11:05:35;97881.94;;;26.02;85.12
46722;BME280;32455;43.430;23.136;2023-06-26T11:08:21;97887.31;;;26.28;80.71
46722;BME280;32455;43.430;23.136;2023-06-26T11:11:06;97867.97;;;26.37;86.45
46722;BME280;32455;43.430;23.136;2023-06-26T11:13:52;97880.28;;;26.39;82.86
46722;BME280;32455;43.430;23.136;2023-06-26T11:16:39;97875.56;;;26.10;80.13
46722;BME280;32455;43.430;23.136;2023-06-26T11:19:27;97882.13;;;25.97;79.95
46722;BME280;32455;43.430;23.136;2023-06-26T11:22:14;97885.66;;;26.36;80.25
46722;BME280;32455;43.430;23.136;2023-06-26T11:25:01;97869.63;;;26.59;84.07
46722;BME280;32455;43.430;23.136;2023-06-26T11:27:46;97863.66;;;26.57;83.37
46722;BME280;32455;43.430;23.136;2023-06-26T11:30:32;97888.47;;;26.57;82.41
46722;BME280;32455;43.430;23.136;2023-06-26T11:33:17;97870.63;;;26.54;82.16
46722;BME280;32455;43.430;23.136;2023-06-26T11:36:11;97878.25;;;26.78;81.15
46722;BME280;32455;43.430;23.136;2023-06-26T11:38:57;97875.00;;;26.97;80.64
46722;BME280;32455;43.430;23.136;2023-06-26T11:41:45;97874.22;;;27.17;83.06
46722;BME280;32455;43.430;23.136;2023-06-26T11:44:31;97869.91;;;27.08;78.62
46722;BME280;32455;43.430;23.136;2023-06-26T11:47:18;97866.63;;;27.14;76.41
46722;BME280;32455;43.430;23.136;2023-06-26T11:50:04;97867.06;;;27.37;85.02
46722;BME280;32455;43.430;23.136;2023-06-26T11:52:57;97860.44;;;26.96;78.41
46722;BME280;32455;43.430;23.136;2023-06-26T11:55:42;97867.31;;;26.10;88.95
46722;BME280;32455;43.430;23.136;2023-06-26T11:58:30;97867.50;;;26.35;89.82
46722;BME280;32455;43.430;23.136;2023-06-26T12:01:18;97868.50;;;26.60;83.96
46722;BME280;32455;43.430;23.136;2023-06-26T12:04:06;97882.56;;;26.88;81.76
46722;BME280;32455;43.430;23.136;2023-06-26T12:06:53;97870.78;;;27.00;80.52
46722;BME280;32455;43.430;23.136;2023-06-26T12:09:46;97867.78;;;27.13;78.83
46722;BME280;32455;43.430;23.136;2023-06-26T12:12:33;97865.69;;;27.10;79.52
46722;BME280;32455;43.430;23.136;2023-06-26T12:15:19;97877.03;;;26.88;77.69
46722;BME280;32455;43.430;23.136;2023-06-26T12:18:11;97869.19;;;26.78;77.89
46722;BME280;32455;43.430;23.136;2023-06-26T12:20:57;97861.72;;;26.99;81.46
46722;BME280;32455;43.430;23.136;2023-06-26T12:23:42;97864.72;;;27.27;80.37
46722;BME280;32455;43.430;23.136;2023-06-26T12:26:27;97861.81;;;27.11;84.76
46722;BME280;32455;43.430;23.136;2023-06-26T12:29:17;97873.41;;;27.17;82.53
46722;BME280;32455;43.430;23.136;2023-06-26T12:32:04;97869.78;;;27.04;75.16
46722;BME280;32455;43.430;23.136;2023-06-26T12:34:53;97860.28;;;27.14;76.02
46722;BME280;32455;43.430;23.136;2023-06-26T12:37:41;97868.94;;;27.45;78.79
46722;BME280;32455;43.430;23.136;2023-06-26T12:40:28;97865.47;;;27.49;81.53
46722;BME280;32455;43.430;23.136;2023-06-26T12:43:23;97863.75;;;27.56;80.76
46722;BME280;32455;43.430;23.136;2023-06-26T12:46:09;97855.19;;;27.04;73.38
46722;BME280;32455;43.430;23.136;2023-06-26T12:48:54;97863.53;;;27.16;74.11
46722;BME280;32455;43.430;23.136;2023-06-26T12:51:40;97858.31;;;27.35;75.20
46722;BME280;32455;43.430;23.136;2023-06-26T12:54:26;97856.91;;;27.29;76.91
46722;BME280;32455;43.430;23.136;2023-06-26T12:57:11;97863.41;;;27.12;72.81
46722;BME280;32455;43.430;23.136;2023-06-26T12:59:59;97863.06;;;27.14;74.50
46722;BME280;32455;43.430;23.136;2023-06-26T13:02:45;97857.59;;;27.05;74.95
46722;BME280;32455;43.430;23.136;2023-06-26T13:05:31;97858.25;;;27.23;73.40
46722;BME280;32455;43.430;23.136;2023-06-26T13:08:16;97865.97;;;27.63;77.13
46722;BME280;32455;43.430;23.136;2023-06-26T13:11:04;97865.47;;;27.49;71.25
46722;BME280;32455;43.430;23.136;2023-06-26T13:13:50;97854.09;;;27.50;75.03
46722;BME280;32455;43.430;23.136;2023-06-26T13:16:36;97859.97;;;27.61;72.47
46722;BME280;32455;43.430;23.136;2023-06-26T13:19:22;97856.28;;;27.57;70.22
46722;BME280;32455;43.430;23.136;2023-06-26T13:22:07;97868.03;;;27.66;69.42
46722;BME280;32455;43.430;23.136;2023-06-26T13:24:52;97862.13;;;27.76;71.55
46722;BME280;32455;43.430;23.136;2023-06-26T13:27:38;97865.16;;;27.62;66.51
46722;BME280;32455;43.430;23.136;2023-06-26T13:30:23;97864.66;;;27.93;68.04
46722;BME280;32455;43.430;23.136;2023-06-26T13:33:09;97855.78;;;27.88;69.42
46722;BME280;32455;43.430;23.136;2023-06-26T13:35:55;97861.78;;;28.02;67.70
46722;BME280;32455;43.430;23.136;2023-06-26T13:38:40;97866.03;;;27.87;65.47
46722;BME280;32455;43.430;23.136;2023-06-26T13:41:26;97860.06;;;27.85;70.81
46722;BME280;32455;43.430;23.136;2023-06-26T13:44:11;97856.00;;;27.83;71.28
46722;BME280;32455;43.430;23.136;2023-06-26T13:46:56;97855.09;;;27.33;68.83
46722;BME280;32455;43.430;23.136;2023-06-26T13:49:42;97846.47;;;27.35;77.35
46722;BME280;32455;43.430;23.136;2023-06-26T13:52:27;97860.34;;;27.71;67.94
46722;BME280;32455;43.430;23.136;2023-06-26T13:55:12;97864.25;;;27.58;65.40
46722;BME280;32455;43.430;23.136;2023-06-26T13:57:57;97860.09;;;27.64;66.52
46722;BME280;32455;43.430;23.136;2023-06-26T14:00:43;97856.41;;;27.60;68.97
46722;BME280;32455;43.430;23.136;2023-06-26T14:03:28;97862.00;;;27.73;70.41
46722;BME280;32455;43.430;23.136;2023-06-26T14:06:13;97859.44;;;27.67;70.37
46722;BME280;32455;43.430;23.136;2023-06-26T14:08:58;97853.34;;;27.74;65.06
46722;BME280;32455;43.430;23.136;2023-06-26T14:11:44;97854.88;;;27.96;65.15
46722;BME280;32455;43.430;23.136;2023-06-26T14:14:30;97850.25;;;27.88;66.60
46722;BME280;32455;43.430;23.136;2023-06-26T14:17:16;97852.69;;;27.77;64.55
46722;BME280;32455;43.430;23.136;2023-06-26T14:20:01;97856.81;;;27.83;64.00
46722;BME280;32455;43.430;23.136;2023-06-26T14:22:46;97851.94;;;27.68;63.61
46722;BME280;32455;43.430;23.136;2023-06-26T14:25:32;97843.09;;;27.62;65.15
46722;BME280;32455;43.430;23.136;2023-06-26T14:28:17;97847.66;;;27.13;65.83